Time;durP1;ratioP1;P1;durP2;ratioP2;P2;SDS_P1;SDS_P2;PMS_P1;PMS_P2;Temp;Humidity;BMP_temperature;BMP_pressure;BME280_temperature;BME280_humidity;BME280_pressure;Samples;Min_cycle;Max_cycle;Signal;HPM_P1;HPM_P2
2022/06/06 00:00:46;;;;;;;52.50;24.48;;;;;;;;;;5059687;28;20131;-42
2022/06/06 00:03:14;;;;;;;39.78;20.85;;;;;;;;;;5059351;28;20405;-42
2022/06/06 00:05:47;;;;;;;34.92;19.77;;;;;;;;;;5059786;28;20053;-42
2022/06/06 00:08:14;;;;;;;43.55;20.65;;;;;;;;;;5059996;28;20048;-43
2022/06/06 00:10:41;;;;;;;61.30;25.30;;;;;;;;;;5061412;28;20102;-42
2022/06/06 00:13:08;;;;;;;46.97;25.00;;;;;;;;;;5060134;28;20052;-43
2022/06/06 00:15:34;;;;;;;65.10;26.02;;;;;;;;;;5058983;28;20053;-43
2022/06/06 00:18:00;;;;;;;40.10;19.45;;;;;;;;;;5059169;28;20049;-42
2022/06/06 00:20:27;;;;;;;69.63;28.80;;;;;;;;;;5072311;28;20095;-42
2022/06/06 00:22:53;;;;;;;57.80;26.10;;;;;;;;;;5059463;28;20049;-42
2022/06/06 00:25:19;;;;;;;60.80;28.45;;;;;;;;;;5059167;28;20045;-41
2022/06/06 00:27:45;;;;;;;43.88;20.42;;;;;;;;;;5058787;28;20518;-41
2022/06/06 00:30:11;;;;;;;60.88;26.50;;;;;;;;;;5055820;28;20045;-41
2022/06/06 00:35:22;;;;;;;60.38;27.67;;;;;;;;;;5059361;28;20064;-41
2022/06/06 00:37:48;;;;;;;53.70;23.05;;;;;;;;;;5056276;28;20135;-41
2022/06/06 00:40:17;;;;;;;35.75;19.40;;;;;;;;;;5055746;28;20045;-41
2022/06/06 00:42:43;;;;;;;52.75;23.98;;;;;;;;;;5055031;28;20498;-41
2022/06/06 00:45:21;;;;;;;43.72;19.63;;;;;;;;;;5058031;28;20044;-41
2022/06/06 00:47:53;;;;;;;61.10;27.85;;;;;;;;;;5054573;28;20493;-42
2022/06/06 00:50:34;;;;;;;47.83;21.80;;;;;;;;;;5055340;28;20059;-42
2022/06/06 00:53:00;;;;;;;45.30;23.17;;;;;;;;;;5054060;28;20072;-42
2022/06/06 00:55:29;;;;;;;50.17;22.77;;;;;;;;;;5059153;28;20049;-42
2022/06/06 00:57:57;;;;;;;43.15;21.58;;;;;;;;;;5065492;28;20126;-43
2022/06/06 01:00:23;;;;;;;40.38;21.85;;;;;;;;;;5055275;28;20091;-42
2022/06/06 01:02:53;;;;;;;41.63;22.73;;;;;;;;;;5055460;28;20080;-42
2022/06/06 01:05:20;;;;;;;43.50;20.98;;;;;;;;;;5055476;28;20504;-42
2022/06/06 01:07:46;;;;;;;48.30;21.95;;;;;;;;;;5056585;28;20073;-43
2022/06/06 01:10:14;;;;;;;34.80;20.02;;;;;;;;;;5054421;28;20143;-43
2022/06/06 01:12:40;;;;;;;43.28;23.00;;;;;;;;;;5059159;28;20053;-42
2022/06/06 01:15:09;;;;;;;37.55;17.88;;;;;;;;;;5037609;28;20049;-43
2022/06/06 01:17:47;;;;;;;31.05;18.88;;;;;;;;;;5055252;28;20052;-43
2022/06/06 01:20:16;;;;;;;43.20;21.75;;;;;;;;;;5055447;28;20379;-43
2022/06/06 01:22:45;;;;;;;39.72;21.15;;;;;;;;;;5053434;28;20526;-44
2022/06/06 01:25:14;;;;;;;47.03;24.60;;;;;;;;;;5054413;28;20041;-44
2022/06/06 01:27:48;;;;;;;47.60;22.85;;;;;;;;;;5055179;28;20056;-43
2022/06/06 01:30:16;;;;;;;43.80;24.20;;;;;;;;;;5054844;28;20045;-43
2022/06/06 01:32:55;;;;;;;43.60;21.92;;;;;;;;;;5054461;28;20450;-43
2022/06/06 01:35:23;;;;;;;35.85;19.83;;;;;;;;;;5054568;28;20037;-43
2022/06/06 01:37:50;;;;;;;42.47;22.50;;;;;;;;;;5054709;28;20443;-43
2022/06/06 01:40:17;;;;;;;41.83;20.90;;;;;;;;;;5054341;28;20088;-42
2022/06/06 01:42:52;;;;;;;33.33;20.48;;;;;;;;;;5055025;28;20045;-43
2022/06/06 01:45:24;;;;;;;29.98;17.42;;;;;;;;;;5054614;28;20049;-42
2022/06/06 01:47:51;;;;;;;34.28;20.30;;;;;;;;;;5055519;28;20106;-42
2022/06/06 01:50:19;;;;;;;33.97;21.08;;;;;;;;;;5053547;28;20048;-42
2022/06/06 01:52:56;;;;;;;33.88;20.67;;;;;;;;;;5054876;28;20052;-42
2022/06/06 01:55:25;;;;;;;31.45;18.00;;;;;;;;;;5051695;28;20039;-42
2022/06/06 01:57:52;;;;;;;40.03;20.02;;;;;;;;;;5054757;28;20565;-43
2022/06/06 02:00:19;;;;;;;35.67;19.63;;;;;;;;;;5054930;28;20049;-44
2022/06/06 02:02:48;;;;;;;35.00;17.55;;;;;;;;;;5075181;28;20041;-43
2022/06/06 02:05:15;;;;;;;28.23;15.77;;;;;;;;;;5067206;28;20082;-43
2022/06/06 02:07:41;;;;;;;26.77;16.85;;;;;;;;;;5056175;28;20044;-42
2022/06/06 02:10:09;;;;;;;39.58;19.05;;;;;;;;;;5055931;28;20053;-43
2022/06/06 02:12:39;;;;;;;30.85;15.40;;;;;;;;;;5058051;28;20045;-41
2022/06/06 02:15:06;;;;;;;32.40;17.77;;;;;;;;;;5054027;28;20139;-38
2022/06/06 02:17:32;;;;;;;25.17;14.07;;;;;;;;;;5054416;28;20064;-41
2022/06/06 02:19:59;;;;;;;26.60;14.40;;;;;;;;;;5055197;28;20146;-39
2022/06/06 02:22:25;;;;;;;29.63;14.98;;;;;;;;;;5054134;28;20080;-40
2022/06/06 02:24:51;;;;;;;23.17;13.60;;;;;;;;;;5054294;28;20402;-38
2022/06/06 02:27:17;;;;;;;23.88;11.95;;;;;;;;;;5053849;28;20041;-41
2022/06/06 02:29:43;;;;;;;23.45;11.75;;;;;;;;;;5053173;28;20048;-40
2022/06/06 02:32:11;;;;;;;25.55;13.73;;;;;;;;;;5054060;28;20045;-40
2022/06/06 02:34:37;;;;;;;26.67;14.45;;;;;;;;;;5054047;28;20418;-41
2022/06/06 02:37:04;;;;;;;26.88;14.30;;;;;;;;;;5053596;28;20052;-41
2022/06/06 02:39:30;;;;;;;25.80;12.88;;;;;;;;;;5053917;28;20136;-41
2022/06/06 02:41:56;;;;;;;19.83;11.65;;;;;;;;;;5053554;28;20099;-42
2022/06/06 02:44:23;;;;;;;23.95;12.30;;;;;;;;;;5054193;28;20123;-41
2022/06/06 02:46:49;;;;;;;23.52;13.30;;;;;;;;;;5052760;28;20091;-42
2022/06/06 02:49:15;;;;;;;17.75;11.68;;;;;;;;;;5052296;28;20393;-41
2022/06/06 02:51:41;;;;;;;19.60;13.00;;;;;;;;;;5053273;28;20049;-42
2022/06/06 02:54:07;;;;;;;22.45;13.57;;;;;;;;;;5064318;28;20052;-40
2022/06/06 02:56:33;;;;;;;19.13;13.07;;;;;;;;;;5073189;28;20147;-40
2022/06/06 02:59:02;;;;;;;27.15;15.10;;;;;;;;;;5054912;28;20048;-39
2022/06/06 03:01:28;;;;;;;24.30;12.00;;;;;;;;;;5053715;28;20076;-38
2022/06/06 03:03:54;;;;;;;19.98;11.40;;;;;;;;;;5056203;28;20090;-37
2022/06/06 03:06:28;;;;;;;17.55;10.50;;;;;;;;;;5053022;28;20049;-38
2022/06/06 03:08:54;;;;;;;13.18;8.35;;;;;;;;;;5053250;28;20049;-37
2022/06/06 03:11:20;;;;;;;19.05;11.50;;;;;;;;;;5056620;28;20045;-39
2022/06/06 03:13:55;;;;;;;18.80;10.70;;;;;;;;;;5053841;28;20084;-35
2022/06/06 03:22:16;;;;;;;24.48;13.45;;;;;;;;;;5053941;28;20055;-35
2022/06/06 03:24:59;;;;;;;16.60;8.60;;;;;;;;;;5028321;28;20044;-37
2022/06/06 03:27:58;;;;;;;14.68;8.68;;;;;;;;;;5057626;28;20048;-35
2022/06/06 03:30:28;;;;;;;20.48;11.48;;;;;;;;;;5042695;28;20092;-35
2022/06/06 03:33:10;;;;;;;19.27;12.18;;;;;;;;;;5053064;28;20103;-35
2022/06/06 03:35:56;;;;;;;22.40;11.57;;;;;;;;;;5053418;28;20453;-35
2022/06/06 03:38:36;;;;;;;24.15;14.93;;;;;;;;;;5052038;28;20400;-35
2022/06/06 03:41:20;;;;;;;17.50;11.88;;;;;;;;;;5052767;28;20045;-37
2022/06/06 03:43:51;;;;;;;16.48;9.70;;;;;;;;;;5052829;28;20134;-38
2022/06/06 03:46:36;;;;;;;21.08;11.70;;;;;;;;;;5052888;28;20049;-33
2022/06/06 03:49:15;;;;;;;17.80;12.32;;;;;;;;;;5052787;28;20491;-36
2022/06/06 03:51:44;;;;;;;26.40;15.35;;;;;;;;;;5052605;28;20059;-34
2022/06/06 03:54:10;;;;;;;25.27;15.13;;;;;;;;;;5053138;28;20049;-32
2022/06/06 03:56:39;;;;;;;16.40;10.80;;;;;;;;;;5052965;28;20045;-35
2022/06/06 03:59:07;;;;;;;27.25;16.38;;;;;;;;;;5052011;28;20049;-38
2022/06/06 04:01:34;;;;;;;25.90;14.68;;;;;;;;;;5053127;28;20053;-39
2022/06/06 04:04:01;;;;;;;20.33;12.27;;;;;;;;;;5052841;28;20601;-39
2022/06/06 04:06:28;;;;;;;17.35;10.75;;;;;;;;;;5056118;28;20049;-38
2022/06/06 04:08:54;;;;;;;16.02;10.75;;;;;;;;;;5075139;28;20048;-40
2022/06/06 04:11:23;;;;;;;16.90;10.98;;;;;;;;;;5074423;28;20048;-40
2022/06/06 04:13:52;;;;;;;18.83;13.00;;;;;;;;;;5073611;28;20040;-35
2022/06/06 04:16:24;;;;;;;18.15;11.98;;;;;;;;;;5076311;28;20414;-39
2022/06/06 04:18:59;;;;;;;15.73;10.43;;;;;;;;;;5062612;28;20106;-40
2022/06/06 04:21:57;;;;;;;16.83;11.07;;;;;;;;;;5065660;28;20080;-38
2022/06/06 04:24:48;;;;;;;16.92;9.43;;;;;;;;;;5043114;28;20106;-39
2022/06/06 04:27:20;;;;;;;21.45;11.88;;;;;;;;;;5056019;28;20056;-34
2022/06/06 04:29:53;;;;;;;15.32;10.30;;;;;;;;;;5056563;28;20052;-38
2022/06/06 04:32:19;;;;;;;;;;;;;;;;;;5056475;28;20055;-34
2022/06/06 04:34:57;;;;;;;15.70;10.02;;;;;;;;;;5056854;28;20007;-37
2022/06/06 04:37:29;;;;;;;14.07;9.02;;;;;;;;;;5055252;28;20055;-36
2022/06/06 04:40:01;;;;;;;14.65;8.63;;;;;;;;;;5039370;28;20048;-35
2022/06/06 04:42:32;;;;;;;10.00;6.90;;;;;;;;;;5055763;28;20120;-35
2022/06/06 04:45:01;;;;;;;17.40;11.40;;;;;;;;;;5056779;28;20049;-35
2022/06/06 04:47:34;;;;;;;13.18;7.72;;;;;;;;;;5056133;28;20051;-34
2022/06/06 04:50:03;;;;;;;15.23;9.45;;;;;;;;;;5056105;28;20048;-38
2022/06/06 04:52:29;;;;;;;16.60;10.38;;;;;;;;;;5054294;28;20045;-38
2022/06/06 04:54:56;;;;;;;12.07;7.18;;;;;;;;;;5069126;28;20497;-38
2022/06/06 04:57:24;;;;;;;8.13;6.57;;;;;;;;;;5064574;28;20509;-38
2022/06/06 04:59:51;;;;;;;12.73;8.32;;;;;;;;;;5056267;28;20094;-35
2022/06/06 05:02:17;;;;;;;6.13;4.90;;;;;;;;;;5054177;28;20455;-38
2022/06/06 05:04:43;;;;;;;8.15;5.82;;;;;;;;;;5054055;28;20094;-34
2022/06/06 05:07:21;;;;;;;5.85;4.25;;;;;;;;;;5054791;28;20132;-40
2022/06/06 05:10:08;;;;;;;2.70;2.15;;;;;;;;;;5056312;28;20049;-33
2022/06/06 05:12:37;;;;;;;6.85;4.45;;;;;;;;;;5071363;28;20048;-33
2022/06/06 05:15:07;;;;;;;9.75;4.50;;;;;;;;;;5056398;28;20057;-33
2022/06/06 05:18:06;;;;;;;6.97;4.78;;;;;;;;;;5055499;28;20069;-34
2022/06/06 05:20:32;;;;;;;7.68;5.00;;;;;;;;;;5052639;28;20088;-33
2022/06/06 05:23:14;;;;;;;15.68;9.13;;;;;;;;;;5056247;28;20057;-33
2022/06/06 05:25:49;;;;;;;15.25;9.60;;;;;;;;;;5056008;28;20056;-36
2022/06/06 05:28:34;;;;;;;13.82;8.68;;;;;;;;;;5054228;28;20494;-35
2022/06/06 05:31:06;;;;;;;14.32;6.82;;;;;;;;;;5054353;28;20620;-39
2022/06/06 05:33:37;;;;;;;11.27;7.20;;;;;;;;;;5055030;28;20128;-34
2022/06/06 05:36:21;;;;;;;14.80;8.48;;;;;;;;;;5054677;28;20479;-36
2022/06/06 05:38:50;;;;;;;12.52;7.50;;;;;;;;;;5054818;28;20079;-34
2022/06/06 05:41:19;;;;;;;17.67;10.77;;;;;;;;;;5054803;28;20517;-34
2022/06/06 05:44:09;;;;;;;10.27;5.43;;;;;;;;;;5058898;28;20501;-35
2022/06/06 05:46:41;;;;;;;18.25;9.00;;;;;;;;;;5053414;28;20582;-35
2022/06/06 05:49:27;;;;;;;12.23;8.40;;;;;;;;;;5054970;28;20187;-39
2022/06/06 05:52:02;;;;;;;23.80;10.18;;;;;;;;;;5033261;28;20139;-40
2022/06/06 05:54:53;;;;;;;23.85;11.02;;;;;;;;;;5058247;28;20082;-34
2022/06/06 05:57:35;;;;;;;21.10;10.18;;;;;;;;;;5055467;28;20060;-38
2022/06/06 06:00:16;;;;;;;21.75;11.32;;;;;;;;;;5052910;28;20045;-34
2022/06/06 06:03:04;;;;;;;18.23;9.35;;;;;;;;;;5053662;28;20055;-34
2022/06/06 06:06:02;;;;;;;18.02;9.35;;;;;;;;;;5054325;28;20051;-33
2022/06/06 06:09:07;;;;;;;16.52;8.10;;;;;;;;;;5053869;28;20052;-34
2022/06/06 06:11:45;;;;;;;14.68;8.57;;;;;;;;;;5032874;28;20054;-33
2022/06/06 06:14:17;;;;;;;13.57;8.00;;;;;;;;;;5015951;28;20407;-34
2022/06/06 06:16:46;;;;;;;16.83;8.45;;;;;;;;;;5053000;28;20530;-34
2022/06/06 06:19:13;;;;;;;21.23;11.02;;;;;;;;;;5053954;28;20530;-38
2022/06/06 06:21:50;;;;;;;14.68;7.60;;;;;;;;;;5036784;28;20052;-37
2022/06/06 06:24:24;;;;;;;17.50;9.38;;;;;;;;;;5046938;28;20394;-39
2022/06/06 06:26:51;;;;;;;19.45;10.00;;;;;;;;;;5072244;28;20113;-38
2022/06/06 06:29:17;;;;;;;15.00;8.98;;;;;;;;;;5073862;28;20044;-38
2022/06/06 06:31:57;;;;;;;13.73;7.32;;;;;;;;;;5070367;28;20067;-35
2022/06/06 06:34:56;;;;;;;18.45;7.85;;;;;;;;;;5053537;28;20398;-36
2022/06/06 06:37:22;;;;;;;13.00;7.15;;;;;;;;;;5058003;28;20410;-33
2022/06/06 06:40:07;;;;;;;16.15;8.05;;;;;;;;;;5054042;28;20455;-33
2022/06/06 06:42:56;;;;;;;18.00;8.55;;;;;;;;;;5063324;28;20044;-36
2022/06/06 06:45:23;;;;;;;15.25;6.68;;;;;;;;;;5072408;28;20545;-36
2022/06/06 06:47:55;;;;;;;9.32;5.95;;;;;;;;;;5069980;28;20040;-33
2022/06/06 06:50:24;;;;;;;9.60;5.80;;;;;;;;;;5057633;28;20053;-34
2022/06/06 06:52:50;;;;;;;8.98;5.53;;;;;;;;;;5053478;28;20049;-33
2022/06/06 06:55:16;;;;;;;8.98;5.35;;;;;;;;;;5052543;28;20053;-33
2022/06/06 06:57:51;;;;;;;3.88;2.95;;;;;;;;;;5053261;28;20144;-33
2022/06/06 07:00:24;;;;;;;8.00;3.30;;;;;;;;;;5053837;28;20053;-33
2022/06/06 07:08:56;;;;;;;5.03;3.33;;;;;;;;;;5060430;28;20049;-34
2022/06/06 07:11:31;;;;;;;6.22;3.67;;;;;;;;;;5061463;28;20089;-35
2022/06/06 07:14:16;;;;;;;4.47;3.08;;;;;;;;;;5073521;28;20044;-37
2022/06/06 07:16:42;;;;;;;5.53;3.10;;;;;;;;;;5073600;28;20048;-34
2022/06/06 07:19:10;;;;;;;7.00;2.95;;;;;;;;;;5066000;28;20037;-34
2022/06/06 07:21:37;;;;;;;6.35;3.28;;;;;;;;;;5053242;28;20055;-34
2022/06/06 07:24:06;;;;;;;3.95;2.78;;;;;;;;;;5053072;28;20493;-34
2022/06/06 07:26:37;;;;;;;5.32;2.78;;;;;;;;;;5053059;28;20091;-37
2022/06/06 07:29:05;;;;;;;7.80;3.00;;;;;;;;;;5052527;28;20051;-36
2022/06/06 07:31:33;;;;;;;5.60;2.38;;;;;;;;;;5054579;28;20044;-35
2022/06/06 07:34:29;;;;;;;5.00;2.85;;;;;;;;;;5053272;28;20045;-35
2022/06/06 07:37:05;;;;;;;5.57;2.97;;;;;;;;;;5043774;28;20123;-34
2022/06/06 07:39:31;;;;;;;7.40;3.17;;;;;;;;;;5063959;28;20414;-37
2022/06/06 07:42:16;;;;;;;5.00;2.42;;;;;;;;;;5069996;28;20040;-37
2022/06/06 07:45:00;;;;;;;4.53;2.80;;;;;;;;;;5064623;28;20072;-35
2022/06/06 07:47:58;;;;;;;9.10;3.63;;;;;;;;;;5070263;28;20379;-38
2022/06/06 07:50:26;;;;;;;4.63;2.90;;;;;;;;;;5043884;28;20082;-35
2022/06/06 07:53:03;;;;;;;4.97;2.25;;;;;;;;;;5064965;28;20922;-37
2022/06/06 07:55:36;;;;;;;6.25;2.95;;;;;;;;;;5075901;28;20201;-36
2022/06/06 07:58:11;;;;;;;6.68;2.90;;;;;;;;;;5057262;28;20130;-34
2022/06/06 08:00:38;;;;;;;4.45;2.05;;;;;;;;;;5057061;28;20052;-34
2022/06/06 08:03:16;;;;;;;6.18;3.45;;;;;;;;;;5055832;28;20106;-33
2022/06/06 08:06:01;;;;;;;5.20;2.70;;;;;;;;;;5056833;28;20041;-34
2022/06/06 08:08:35;;;;;;;6.97;3.67;;;;;;;;;;5062237;28;20074;-34
2022/06/06 08:11:08;;;;;;;5.30;2.78;;;;;;;;;;5075939;28;20056;-34
2022/06/06 08:13:37;;;;;;;6.22;3.00;;;;;;;;;;5076743;28;20048;-36
2022/06/06 08:16:03;;;;;;;5.35;2.70;;;;;;;;;;5076700;28;20063;-32
2022/06/06 08:18:38;;;;;;;6.82;2.67;;;14.30;99.90;;;;;;5061151;28;20118;-33
2022/06/06 08:21:15;;;;;;;3.65;2.20;;;14.30;99.90;;;;;;5056692;28;20048;-33
2022/06/06 08:23:44;;;;;;;5.68;2.35;;;14.00;99.90;;;;;;5065099;28;20072;-32
2022/06/06 08:26:11;;;;;;;4.65;2.17;;;13.70;99.90;;;;;;5075369;28;20048;-33
2022/06/06 08:28:39;;;;;;;5.90;2.33;;;13.50;99.90;;;;;;5075620;28;20055;-32
2022/06/06 08:31:06;;;;;;;3.28;2.30;;;13.60;99.90;;;;;;5076718;28;20052;-32
2022/06/06 08:33:33;;;;;;;6.15;2.65;;;13.60;99.90;;;;;;5075382;28;20056;-32
2022/06/06 08:36:38;;;;;;;3.42;1.60;;;13.70;99.90;;;;;;5067064;28;20171;-31
2022/06/06 08:39:18;;;;;;;2.28;1.25;;;13.70;99.90;;;;;;5046005;28;20543;-32
2022/06/06 08:42:21;;;;;;;2.97;1.42;;;14.20;99.90;;;;;;5055670;28;20124;-31
2022/06/06 08:45:20;;;;;;;2.50;1.58;;;14.40;99.90;;;;;;5071383;28;20041;-32
2022/06/06 08:47:48;;;;;;;4.35;1.90;;;14.10;99.90;;;;;;5076712;28;20048;-32
2022/06/06 08:50:46;;;;;;;4.30;2.50;;;13.80;99.90;;;;;;5075497;28;20045;-31
2022/06/06 08:53:33;;;;;;;6.03;3.08;;;13.50;99.90;;;;;;5058664;28;20407;-31
2022/06/06 08:56:19;;;;;;;4.50;3.10;;;13.40;99.90;;;;;;5074815;28;20052;-32
2022/06/06 08:58:44;;;;;;;4.88;3.10;;;13.60;99.90;;;;;;5076416;28;20410;-31
2022/06/06 09:01:25;;;;;;;5.78;2.75;;;13.50;99.90;;;;;;5076201;28;20060;-32
2022/06/06 09:04:30;;;;;;;3.95;2.42;;;13.50;99.90;;;;;;5057692;28;20048;-31
2022/06/06 09:07:34;;;;;;;6.50;3.90;;;13.60;99.90;;;;;;5074856;28;20059;-32
2022/06/06 09:10:05;;;;;;;7.13;3.53;;;13.60;99.90;;;;;;5069213;28;20057;-33
2022/06/06 09:12:52;;;;;;;5.93;4.10;;;13.70;99.90;;;;;;5076526;28;20048;-33
2022/06/06 09:15:43;;;;;;;9.90;5.55;;;13.60;99.90;;;;;;5071484;28;20106;-32
2022/06/06 09:18:50;;;;;;;9.02;5.25;;;13.70;99.90;;;;;;5068947;28;20063;-33
2022/06/06 09:21:33;;;;;;;8.73;5.88;;;14.20;99.90;;;;;;5071527;28;20072;-33
2022/06/06 09:24:36;;;;;;;8.10;5.03;;;15.20;99.90;;;;;;5063406;28;20037;-32
2022/06/06 09:27:04;;;;;;;7.85;4.75;;;;;;;;;;5075772;28;20137;-32
2022/06/06 09:29:44;;;;;;;11.35;4.20;;;;;;;;;;5058927;28;20045;-31
2022/06/06 09:32:28;;;;;;;10.63;5.03;;;;;;;;;;5055352;28;20100;-32
2022/06/06 09:35:12;;;;;;;8.25;3.88;;;;;;;;;;5055840;28;20044;-31
2022/06/06 09:37:59;;;;;;;7.00;3.05;;;;;;;;;;5055226;28;20103;-30
2022/06/06 09:40:34;;;;;;;5.07;3.55;;;;;;;;;;5055192;28;20505;-29
2022/06/06 09:43:11;;;;;;;7.93;3.00;;;;;;;;;;5055201;28;20052;-29
2022/06/06 09:46:06;;;;;;;7.30;2.80;;;;;;;;;;5055142;28;20047;-30
2022/06/06 09:48:42;;;;;;;6.07;2.92;;;;;;;;;;5036197;28;20056;-29
2022/06/06 09:51:13;;;;;;;5.15;2.42;;;;;;;;;;5055582;28;20187;-30
2022/06/06 09:59:01;;;;;;;6.90;2.38;;;;;;;;;;5055165;28;20575;-29
2022/06/06 10:00:03;;;;;;;4.38;2.28;;;;;;;;;;5054789;28;20483;-29
2022/06/06 10:02:48;;;;;;;7.85;2.53;;;;;;;;;;5045417;28;20095;-29
2022/06/06 10:05:20;;;;;;;6.60;2.50;;;;;;;;;;5059216;28;20039;-28
2022/06/06 10:07:52;;;;;;;6.90;2.30;;;;;;;;;;5065626;28;20114;-28
2022/06/06 10:10:37;;;;;;;5.30;2.25;;;;;;;;;;5056247;28;20128;-28
2022/06/06 10:13:24;;;;;;;10.15;1.80;;;;;;;;;;5054427;28;20052;-29
2022/06/06 10:16:09;;;;;;;7.13;2.03;;;;;;;;;;5054828;28;20566;-29
2022/06/06 10:18:39;;;;;;;5.47;1.98;;;;;;;;;;5055150;28;20113;-28
2022/06/06 10:21:11;;;;;;;6.53;1.50;;;;;;;;;;5059443;28;20486;-28
2022/06/06 10:23:41;;;;;;;6.63;1.52;;;;;;;;;;5062809;28;20060;-29
2022/06/06 10:26:16;;;;;;;4.07;1.30;;;;;;;;;;5054100;28;20052;-28
2022/06/06 10:28:51;;;;;;;5.72;0.95;;;;;;;;;;5054246;28;20045;-29
2022/06/06 10:31:20;;;;;;;5.35;1.00;;;;;;;;;;5053413;28;20041;-28
2022/06/06 10:34:01;;;;;;;4.65;1.17;;;;;;;;;;5052868;28;20049;-28
2022/06/06 10:36:36;;;;;;;4.95;1.00;;;;;;;;;;5062839;28;20072;-28
2022/06/06 10:39:02;;;;;;;5.82;0.70;;;;;;;;;;5074099;28;20048;-28
2022/06/06 10:41:39;;;;;;;6.25;0.82;;;;;;;;;;5058224;28;20131;-28
2022/06/06 10:44:10;;;;;;;4.50;0.98;;;;;;;;;;5053612;28;20090;-28
2022/06/06 10:46:36;;;;;;;4.22;0.93;;;;;;;;;;5053011;28;20049;-29
2022/06/06 10:49:20;;;;;;;2.80;0.88;;;;;;;;;;5056544;28;20037;-28
2022/06/06 10:52:08;;;;;;;7.00;1.20;;;;;;;;;;5059514;28;20599;-28
2022/06/06 10:54:37;;;;;;;4.32;0.82;;;;;;;;;;5071628;28;20072;-28
2022/06/06 10:57:06;;;;;;;5.95;1.17;;;;;;;;;;5073803;28;20050;-29
2022/06/06 10:59:53;;;;;;;7.00;0.85;;;;;;;;;;5074092;28;20052;-28
2022/06/06 11:02:19;;;;;;;6.47;0.90;;;;;;;;;;5073771;28;20493;-27
2022/06/06 11:05:04;;;;;;;5.32;0.82;;;;;;;;;;5063972;28;20070;-28
2022/06/06 11:07:40;;;;;;;3.70;0.75;;;;;;;;;;5053701;28;20044;-28
2022/06/06 11:10:20;;;;;;;6.68;0.80;;;;;;;;;;5054199;28;20128;-28
2022/06/06 11:13:18;;;;;;;3.72;0.85;;;;;;;;;;5054175;28;20045;-28
2022/06/06 11:16:11;;;;;;;4.15;1.10;;;;;;;;;;5058366;28;20045;-27
2022/06/06 11:18:42;;;;;;;5.55;1.10;;;;;;;;;;5072675;28;20052;-27
2022/06/06 11:21:26;;;;;;;2.55;0.73;;;;;;;;;;5074110;28;20060;-29
2022/06/06 11:23:52;;;;;;;6.85;0.95;;;;;;;;;;5074112;28;20044;-28
2022/06/06 11:26:33;;;;;;;5.00;0.90;;;;;;;;;;5059616;28;20498;-28
2022/06/06 11:29:11;;;;;;;4.82;0.98;;;;;;;;;;5053999;28;20095;-27
2022/06/06 11:31:39;;;;;;;1.38;0.50;;;;;;;;;;5053469;28;20071;-28
2022/06/06 11:34:05;;;;;;;3.88;0.77;;;;;;;;;;5055967;28;20145;-28
2022/06/06 11:36:33;;;;;;;3.95;1.00;;;;;;;;;;5064371;28;20131;-28
2022/06/06 11:39:18;;;;;;;3.67;1.27;;;;;;;;;;5072144;28;20048;-29
2022/06/06 11:41:56;;;;;;;2.83;0.50;;;;;;;;;;5053628;28;20052;-28
2022/06/06 11:44:31;;;;;;;1.55;0.55;;;;;;;;;;5054151;28;20045;-27
2022/06/06 11:47:16;;;;;;;2.97;0.60;;;;;;;;;;5053223;28;20053;-29
2022/06/06 11:50:12;;;;;;;3.53;0.70;;;;;;;;;;5054076;28;20052;-27
2022/06/06 11:52:42;;;;;;;3.22;0.82;;;;;;;;;;5063438;28;20551;-27
2022/06/06 11:55:30;;;;;;;4.55;1.10;;;;;;;;;;5058719;28;20052;-27
2022/06/06 11:58:15;;;;;;;3.30;0.80;;;;;;;;;;5054081;28;20161;-27
2022/06/06 12:00:52;;;;;;;5.20;1.02;;;;;;;;;;5064896;28;20044;-28
2022/06/06 12:03:18;;;;;;;6.45;1.65;;;;;;;;;;5073832;28;20052;-27
2022/06/06 12:05:44;;;;;;;4.90;1.00;;;;;;;;;;5073071;28;20045;-28
2022/06/06 12:08:22;;;;;;;6.22;1.48;;;;;;;;;;5072299;28;20049;-29
2022/06/06 12:11:06;;;;;;;3.67;0.95;;;;;;;;;;5073163;28;20110;-27
2022/06/06 12:13:32;;;;;;;2.90;0.63;;;;;;;;;;5055354;28;20056;-27
2022/06/06 12:16:17;;;;;;;5.72;0.95;;;;;;;;;;5053313;28;20057;-28
2022/06/06 12:18:49;;;;;;;3.40;1.20;;;;;;;;;;5052595;28;20099;-27
2022/06/06 12:21:41;;;;;;;4.07;0.93;;;;;;;;;;5053035;28;20078;-28
2022/06/06 12:24:22;;;;;;;4.43;0.95;;;;;;;;;;5052680;28;20045;-27
2022/06/06 12:26:55;;;;;;;5.43;1.20;;;;;;;;;;5055727;28;20045;-27
2022/06/06 12:29:21;;;;;;;;;;;;;;;;;;5073417;28;20048;-27
2022/06/06 12:31:58;;;;;;;9.23;1.52;;;;;;;;;;5064479;28;19927;-28
2022/06/06 12:34:42;;;;;;;4.65;1.10;;;;;;;;;;5076707;28;20048;-27
2022/06/06 12:37:22;;;;;;;4.75;1.13;;;;;;;;;;5067356;28;20128;-28
2022/06/06 12:39:48;;;;;;;3.40;1.10;;;;;;;;;;5056442;28;20056;-27
2022/06/06 12:42:20;;;;;;;3.38;1.33;;;;;;;;;;5057045;28;20094;-27
2022/06/06 12:44:55;;;;;;;3.25;1.25;;;;;;;;;;5056252;28;20127;-27
2022/06/06 12:47:38;;;;;;;6.88;1.25;;;;;;;;;;5056218;28;20194;-27
2022/06/06 12:50:04;;;;;;;2.17;0.73;;;;;;;;;;5071294;28;20055;-27
2022/06/06 12:52:37;;;;;;;4.50;1.30;;;;;;;;;;5076091;28;20048;-27
2022/06/06 12:57:52;;;;;;;2.88;1.30;;;;;;;;;;5059061;28;20398;-27
2022/06/06 13:03:24;;;;;;;5.82;1.42;;;;;;;;;;5075049;28;20093;-27
2022/06/06 13:06:05;;;;;;;8.02;1.65;;;;;;;;;;5067868;28;20166;-27
2022/06/06 13:08:41;;;;;;;3.90;1.58;;;;;;;;;;5055823;28;20105;-26
2022/06/06 13:11:27;;;;;;;2.97;1.40;;;;;;;;;;5055840;28;20056;-26
2022/06/06 13:13:56;;;;;;;3.25;1.90;;;;;;;;;;5055032;28;20439;-26
2022/06/06 13:16:32;;;;;;;5.97;1.83;;;;;;;;;;5055948;28;20110;-27
2022/06/06 13:19:17;;;;;;;4.35;1.80;;;;;;;;;;5070061;28;20083;-28
2022/06/06 13:22:01;;;;;;;3.17;1.85;;;;;;;;;;5076189;28;20048;-27
2022/06/06 13:24:42;;;;;;;9.32;2.53;;;;;;;;;;5075520;28;20044;-27
2022/06/06 13:27:26;;;;;;;5.53;1.85;;;;;;;;;;5075541;28;20052;-28
2022/06/06 13:29:52;;;;;;;4.30;2.13;;;;;;;;;;5074492;28;20041;-26
2022/06/06 13:32:32;;;;;;;6.72;2.35;;;;;;;;;;5075272;28;20237;-26
2022/06/06 13:35:02;;;;;;;8.38;1.92;;;;;;;;;;5074845;28;20102;-26
2022/06/06 13:37:43;;;;;;;4.95;1.33;;;;;;;;;;5073110;28;20094;-27
2022/06/06 13:40:16;;;;;;;1.98;0.60;;;;;;;;;;5075196;28;20139;-25
2022/06/06 13:43:10;;;;;;;6.90;1.38;;;;;;;;;;5074851;28;20486;-24
2022/06/06 13:45:35;;;;;;;;;;;;;;;;;;5075453;28;20131;-25
2022/06/06 13:48:08;;;;;;;2.70;1.10;;;;;;;;;;5075896;28;20402;-27
2022/06/06 13:50:39;;;;;;;3.65;1.70;;;;;;;;;;5075028;28;20067;-29
2022/06/06 13:53:16;;;;;;;3.53;1.75;;;;;;;;;;5075001;28;20614;-29
2022/06/06 13:55:42;;;;;;;3.45;2.47;;;;;;;;;;5075097;28;20382;-29
2022/06/06 13:58:08;;;;;;;7.07;3.13;;;;;;;;;;5073647;28;20445;-28
2022/06/06 14:00:58;;;;;;;7.32;2.90;;;;;;;;;;5075411;28;20135;-29
2022/06/06 14:03:27;;;;;;;4.80;2.83;;;;;;;;;;5072198;28;20049;-30
2022/06/06 14:06:03;;;;;;;9.35;4.78;;;;;;;;;;5074848;28;20544;-29
2022/06/06 14:08:47;;;;;;;9.20;5.45;;;;;;;;;;5075287;28;20478;-31
2022/06/06 14:11:19;;;;;;;5.95;4.63;;;;;;;;;;5075794;28;20083;-31
2022/06/06 14:13:45;;;;;;;8.80;5.93;;;;;;;;;;5074534;28;20048;-32
2022/06/06 14:16:17;;;;;;;12.68;7.40;;;;;;;;;;5074098;28;20060;-31
2022/06/06 14:18:44;;;;;;;9.43;6.03;;;;;;;;;;5074516;28;20060;-32
2022/06/06 14:21:21;;;;;;;11.77;9.50;;;;;;;;;;5074339;28;20078;-32
2022/06/06 14:23:47;;;;;;;13.77;7.57;;;;;;;;;;5075204;28;20132;-33
2022/06/06 14:26:15;;;;;;;11.02;8.20;;;;;;;;;;5074296;28;20045;-39
2022/06/06 14:28:43;;;;;;;12.52;8.52;;;;;;;;;;5074245;28;20054;-40
2022/06/06 14:31:27;;;;;;;13.40;9.93;;;;;;;;;;5075019;28;20427;-42
2022/06/06 14:33:58;;;;;;;12.98;10.00;;;;;;;;;;5074104;28;20055;-42
2022/06/06 14:36:28;;;;;;;14.25;8.70;;;;;;;;;;5073539;28;20044;-37
2022/06/06 14:38:55;;;;;;;11.27;6.63;;;;;;;;;;5074084;28;20465;-40
2022/06/06 14:41:24;;;;;;;13.43;6.45;;;;;;;;;;5074023;28;20044;-35
2022/06/06 14:43:52;;;;;;;7.38;3.67;;;;;;;;;;5074053;28;20098;-42
2022/06/06 14:46:19;;;;;;;5.15;3.88;;;;;;;;;;5074817;28;20048;-40
2022/06/06 14:48:47;;;;;;;3.97;3.00;;;;;;;;;;5072952;28;20514;-43
2022/06/06 14:51:14;;;;;;;5.47;3.85;;;;;;;;;;5074493;28;20501;-42
2022/06/06 14:53:46;;;;;;;4.53;2.53;;;;;;;;;;5073090;28;20051;-43
2022/06/06 14:56:18;;;;;;;1.37;1.20;;;;;;;;;;5073203;28;20060;-41
2022/06/06 14:58:53;;;;;;;4.87;1.60;;;;;;;;;;5073869;28;20188;-41
2022/06/06 15:01:21;;;;;;;1.02;0.70;;;;;;;;;;5073301;28;20135;-43
2022/06/06 15:03:48;;;;;;;1.90;0.60;;;;;;;;;;5072261;28;20127;-43
2022/06/06 15:06:19;;;;;;;1.17;0.68;;;;;;;;;;5074230;28;20082;-44
2022/06/06 15:09:03;;;;;;;1.83;0.50;;;;;;;;;;5073159;28;20044;-44
2022/06/06 15:11:31;;;;;;;2.15;0.73;;;;;;;;;;5073722;28;20052;-44
2022/06/06 15:13:59;;;;;;;2.88;0.90;;;;;;;;;;5073595;28;20044;-47
2022/06/06 15:16:28;;;;;;;1.65;0.40;;;;;;;;;;5073239;28;20059;-38
2022/06/06 15:18:56;;;;;;;3.03;1.00;;;;;;;;;;5073586;28;20063;-36
2022/06/06 15:21:24;;;;;;;1.77;0.50;;;;;;;;;;5073588;28;20051;-36
2022/06/06 15:24:00;;;;;;;1.40;0.47;;;;;;;;;;5073534;28;20045;-36
2022/06/06 15:26:29;;;;;;;2.72;0.35;;;;;;;;;;5073858;28;20048;-38
2022/06/06 15:29:05;;;;;;;0.80;0.30;;;;;;;;;;5073508;28;20055;-38